Time;durP1;ratioP1;P1;durP2;ratioP2;P2;SDS_P1;SDS_P2;PMS_P1;PMS_P2;Temp;Humidity;BMP_temperature;BMP_pressure;BME280_temperature;BME280_humidity;BME280_pressure;Samples;Min_cycle;Max_cycle;Signal;HPM_P1;HPM_P2
2022/11/27 00:00:36;;;;;;;35.35;25.00;;;;;;;-0.05;100.00;96837.56;5079917;28;20044;-69
2022/11/27 00:03:01;;;;;;;26.25;20.90;;;;;;;-0.05;100.00;96837.56;5084338;28;20016;-69
2022/11/27 00:05:26;;;;;;;37.17;23.52;;;;;;;-0.07;100.00;96839.34;5076273;28;20375;-69
2022/11/27 00:07:52;;;;;;;34.10;22.15;;;;;;;-0.08;100.00;96860.09;5082377;28;20099;-69
2022/11/27 00:10:17;;;;;;;32.97;20.23;;;;;;;-0.07;100.00;96857.47;5072375;28;20023;-69
2022/11/27 00:12:43;;;;;;;27.67;20.10;;;;;;;0.00;100.00;96860.72;5084527;28;20029;-69
2022/11/27 00:15:08;;;;;;;31.25;24.08;;;;;;;-0.03;100.00;96861.66;5088513;28;20604;-61
2022/11/27 00:17:33;;;;;;;32.92;22.23;;;;;;;-0.05;100.00;96857.41;5084052;28;20048;-61
2022/11/27 00:19:59;;;;;;;29.45;20.52;;;;;;;-0.10;100.00;96854.13;5080029;28;20039;-61
2022/11/27 00:22:25;;;;;;;25.77;19.42;;;;;;;-0.15;100.00;96851.66;5085530;28;20070;-61
2022/11/27 00:24:51;;;;;;;23.88;17.60;;;;;;;-0.16;100.00;96849.97;5078343;28;20051;-62
2022/11/27 00:27:16;;;;;;;24.65;17.92;;;;;;;-0.22;100.00;96848.44;5086314;28;20089;-61
2022/11/27 00:29:41;;;;;;;23.52;16.83;;;;;;;-0.20;100.00;96840.63;5086319;28;20035;-61
2022/11/27 00:32:07;;;;;;;23.95;19.75;;;;;;;-0.20;100.00;96838.03;5082849;28;20099;-61
2022/11/27 00:34:33;;;;;;;26.98;21.40;;;;;;;-0.25;100.00;96824.38;5084303;28;20035;-60
2022/11/27 00:36:58;;;;;;;24.05;19.90;;;;;;;-0.28;100.00;96811.53;5087544;28;20016;-61
2022/11/27 00:39:24;;;;;;;20.83;15.85;;;;;;;-0.27;100.00;96805.47;5083873;28;20031;-59
2022/11/27 00:41:49;;;;;;;15.88;14.25;;;;;;;-0.29;100.00;96800.31;5084237;28;20012;-60
2022/11/27 00:44:15;;;;;;;14.38;12.85;;;;;;;-0.31;100.00;96802.13;5084819;28;20027;-60
2022/11/27 00:46:41;;;;;;;14.85;11.00;;;;;;;-0.30;100.00;96802.09;5082674;28;20036;-59
2022/11/27 00:49:07;;;;;;;17.17;14.30;;;;;;;-0.26;100.00;96817.50;5085679;28;20032;-60
2022/11/27 00:51:33;;;;;;;19.65;16.63;;;;;;;-0.23;100.00;96814.81;5085577;28;20023;-59
2022/11/27 00:53:58;;;;;;;21.33;17.88;;;;;;;-0.26;100.00;96817.50;5084753;28;20027;-60
2022/11/27 00:56:29;;;;;;;16.95;15.27;;;;;;;-0.29;100.00;96821.03;5085409;28;20028;-60
2022/11/27 00:58:55;;;;;;;15.98;14.27;;;;;;;-0.35;100.00;96822.06;5084584;28;20040;-68
2022/11/27 01:01:24;;;;;;;20.92;12.00;;;;;;;-0.39;100.00;96811.88;5084485;28;20085;-68
2022/11/27 01:03:50;;;;;;;12.60;10.45;;;;;;;-0.39;100.00;96823.06;5082947;28;20052;-68
2022/11/27 01:06:17;;;;;;;13.45;10.50;;;;;;;-0.34;100.00;96818.56;5086125;28;20072;-68
2022/11/27 01:08:43;;;;;;;12.13;10.65;;;;;;;-0.35;100.00;96823.81;5082435;28;20449;-68
2022/11/27 01:11:19;;;;;;;16.23;12.75;;;;;;;-0.41;100.00;96832.59;5084561;28;20067;-68
2022/11/27 01:13:45;;;;;;;14.55;12.15;;;;;;;-0.44;100.00;96843.91;5084136;28;20015;-68
2022/11/27 01:16:14;;;;;;;13.13;11.25;;;;;;;-0.46;100.00;96843.09;5085530;28;20028;-68
2022/11/27 01:18:41;;;;;;;12.43;10.73;;;;;;;-0.50;100.00;96832.91;5077120;28;20046;-68
2022/11/27 01:21:08;;;;;;;12.10;10.93;;;;;;;-0.57;100.00;96819.28;5084685;28;20035;-68
2022/11/27 01:23:34;;;;;;;11.10;10.10;;;;;;;-0.58;100.00;96820.19;5079373;28;20082;-68
2022/11/27 01:26:01;;;;;;;9.60;8.60;;;;;;;-0.54;100.00;96818.38;5080832;28;20032;-68
2022/11/27 01:28:27;;;;;;;7.88;7.18;;;;;;;-0.52;100.00;96804.47;5097434;28;20035;-68
2022/11/27 01:30:52;;;;;;;10.50;7.45;;;;;;;-0.52;100.00;96806.22;5084999;28;20024;-68
2022/11/27 01:33:18;;;;;;;9.98;8.93;;;;;;;-0.46;100.00;96804.28;5079655;28;20090;-59
2022/11/27 01:35:59;;;;;;;11.63;9.20;;;;;;;-0.41;100.00;96798.97;5082665;28;20031;-59
2022/11/27 01:38:25;;;;;;;8.38;7.00;;;;;;;-0.48;100.00;96792.28;5079409;28;20048;-60
2022/11/27 01:41:06;;;;;;;8.45;7.55;;;;;;;-0.55;100.00;96786.47;5080541;28;20024;-59
2022/11/27 01:43:49;;;;;;;8.90;8.02;;;;;;;-0.58;100.00;96778.78;5083203;28;20049;-59
2022/11/27 01:46:30;;;;;;;9.32;8.15;;;;;;;-0.60;100.00;96775.41;5085480;28;20058;-60
2022/11/27 01:49:04;;;;;;;9.90;8.75;;;;;;;-0.63;100.00;96768.56;5083818;28;20110;-60
2022/11/27 01:51:30;;;;;;;8.98;8.15;;;;;;;-0.64;100.00;96769.47;5086612;28;20063;-60
2022/11/27 01:53:56;;;;;;;9.48;8.45;;;;;;;-0.61;100.00;96769.38;5082047;28;20825;-60
2022/11/27 01:56:23;;;;;;;10.52;9.18;;;;;;;-0.52;100.00;96767.41;5076885;28;20408;-67
2022/11/27 01:58:49;;;;;;;11.57;9.85;;;;;;;-0.30;100.00;96765.84;5081967;28;20028;-67
2022/11/27 02:01:15;;;;;;;10.23;9.13;;;;;;;-0.44;100.00;96765.44;5088312;28;20031;-67
2022/11/27 02:03:41;;;;;;;11.35;10.13;;;;;;;-0.60;100.00;96763.31;5063267;28;20039;-68
2022/11/27 02:06:11;;;;;;;11.60;9.95;;;;;;;-0.66;100.00;96752.31;5078422;28;20047;-67
2022/11/27 02:08:36;;;;;;;14.68;10.43;;;;;;;-0.68;100.00;96760.13;5082940;28;20086;-67
2022/11/27 02:11:12;;;;;;;10.60;9.55;;;;;;;-0.63;100.00;96763.41;5084572;28;20500;-60
2022/11/27 02:13:44;;;;;;;12.73;9.50;;;;;;;-0.62;100.00;96762.50;5079932;28;20114;-60
2022/11/27 02:16:33;;;;;;;11.23;10.07;;;;;;;-0.66;100.00;96760.09;5077770;28;20024;-67
2022/11/27 02:19:11;;;;;;;12.02;10.07;;;;;;;-0.61;100.00;96756.44;5074684;28;20419;-67
2022/11/27 02:22:08;;;;;;;10.73;9.82;;;;;;;-0.66;100.00;96765.25;5079015;28;20085;-67
2022/11/27 02:25:04;;;;;;;12.18;10.15;;;;;;;-0.64;100.00;96769.47;5082232;28;20103;-67
2022/11/27 02:27:55;;;;;;;11.43;10.32;;;;;;;-0.66;100.00;96767.84;5081305;28;20032;-67
2022/11/27 02:30:20;;;;;;;11.55;10.43;;;;;;;-0.72;100.00;96774.88;5087857;28;20032;-59
2022/11/27 02:32:49;;;;;;;13.00;10.32;;;;;;;-0.74;100.00;96774.06;5082569;28;20055;-60
2022/11/27 02:35:21;;;;;;;12.32;10.95;;;;;;;-0.77;100.00;96784.50;5085026;28;20028;-60
2022/11/27 02:37:57;;;;;;;11.15;10.05;;;;;;;-0.81;100.00;96779.47;5083448;28;20069;-60
2022/11/27 02:40:39;;;;;;;10.82;9.80;;;;;;;-0.77;100.00;96775.94;5085306;28;20039;-60
2022/11/27 02:43:13;;;;;;;12.88;11.57;;;;;;;-0.75;100.00;96763.78;5080872;28;20032;-61
2022/11/27 02:45:42;;;;;;;13.48;12.15;;;;;;;-0.74;100.00;96757.72;5081426;28;20025;-60
2022/11/27 02:48:11;;;;;;;15.55;14.15;;;;;;;-0.75;100.00;96762.03;5081126;28;20532;-60
2022/11/27 02:50:40;;;;;;;14.57;13.18;;;;;;;-0.85;100.00;96759.78;5078110;28;20019;-61
2022/11/27 02:53:14;;;;;;;16.70;15.00;;;;;;;-0.88;100.00;96761.56;5086839;28;20024;-67
2022/11/27 02:55:41;;;;;;;20.02;18.17;;;;;;;-0.85;100.00;96760.63;5079787;28;20024;-67
2022/11/27 02:58:12;;;;;;;22.60;20.50;;;;;;;-0.91;100.00;96758.22;5086132;28;20039;-67
2022/11/27 03:00:38;;;;;;;20.55;18.65;;;;;;;-0.94;100.00;96759.16;5082357;28;20035;-67
2022/11/27 03:03:07;;;;;;;19.20;17.30;;;;;;;-0.93;100.00;96763.44;5081211;28;20056;-67
2022/11/27 03:05:38;;;;;;;18.48;16.63;;;;;;;-0.92;100.00;96761.69;5079868;28;20515;-67
2022/11/27 03:08:28;;;;;;;17.70;16.00;;;;;;;-0.93;100.00;96766.03;5077654;28;20036;-67
2022/11/27 03:10:56;;;;;;;19.58;17.55;;;;;;;-0.90;100.00;96762.47;5085217;28;20033;-61
2022/11/27 03:13:23;;;;;;;20.00;18.23;;;;;;;-0.87;100.00;96771.00;5078223;28;20089;-60
2022/11/27 03:16:02;;;;;;;18.48;16.70;;;;;;;-0.91;100.00;96771.13;5083289;28;20026;-61
2022/11/27 03:18:33;;;;;;;18.05;16.38;;;;;;;-0.91;100.00;96772.00;5079680;28;20043;-62
2022/11/27 03:21:13;;;;;;;19.60;17.70;;;;;;;-0.98;100.00;96774.81;5079660;28;20016;-61
2022/11/27 03:23:38;;;;;;;20.80;16.98;;;;;;;-0.98;100.00;96778.25;5079980;28;20477;-61
2022/11/27 03:26:04;;;;;;;17.13;15.52;;;;;;;-0.99;100.00;96776.56;5073754;28;20120;-61
2022/11/27 03:28:30;;;;;;;12.80;11.60;;;;;;;-0.95;100.00;96780.75;5087207;28;20028;-61
2022/11/27 03:30:56;;;;;;;14.93;13.32;;;;;;;-0.98;100.00;96777.38;5081064;28;20016;-61
2022/11/27 03:33:21;;;;;;;11.85;10.63;;;;;;;-1.07;100.00;96784.53;5079492;28;20071;-67
2022/11/27 03:35:47;;;;;;;10.13;9.15;;;;;;;-1.08;100.00;96781.97;5084838;28;20058;-67
2022/11/27 03:38:12;;;;;;;9.82;8.93;;;;;;;-1.06;100.00;96778.47;5083759;28;20392;-67
2022/11/27 03:40:51;;;;;;;14.35;13.05;;;;;;;-1.04;100.00;96778.41;5079816;28;20020;-67
2022/11/27 03:43:25;;;;;;;17.08;15.48;;;;;;;-1.05;100.00;96772.41;5080378;28;20051;-67
2022/11/27 03:46:02;;;;;;;14.15;12.85;;;;;;;-1.06;100.00;96764.66;5078586;28;20075;-67
2022/11/27 03:48:46;;;;;;;20.20;18.23;;;;;;;-0.98;100.00;96773.06;5075634;28;20028;-59
2022/11/27 03:51:45;;;;;;;19.33;17.38;;;;;;;-1.08;100.00;96772.50;5078938;28;20019;-61
2022/11/27 03:54:18;;;;;;;12.93;11.88;;;;;;;-1.12;100.00;96770.84;5065690;28;20035;-61
2022/11/27 03:57:12;;;;;;;12.27;11.07;;;;;;;-1.11;100.00;96776.88;5080047;28;20024;-61
2022/11/27 03:59:41;;;;;;;12.57;11.02;;;;;;;-1.10;100.00;96770.81;5083224;28;20091;-61
2022/11/27 04:02:12;;;;;;;12.35;11.13;;;;;;;-1.11;100.00;96771.72;5078331;28;20035;-61
2022/11/27 04:04:38;;;;;;;11.77;10.57;;;;;;;-1.13;100.00;96774.34;5082726;28;20397;-61
2022/11/27 04:07:03;;;;;;;12.30;10.35;;;;;;;-1.14;100.00;96775.22;5084314;28;20085;-67
2022/11/27 04:09:28;;;;;;;17.63;12.13;;;;;;;-1.16;100.00;96774.44;5081585;28;20107;-66
2022/11/27 04:11:54;;;;;;;13.63;12.23;;;;;;;-1.16;100.00;96772.69;5085555;28;20500;-66
2022/11/27 04:14:19;;;;;;;11.88;10.65;;;;;;;-1.17;100.00;96767.56;5080518;28;20555;-67
2022/11/27 04:16:44;;;;;;;12.40;11.20;;;;;;;-1.21;100.00;96772.00;5082165;28;20023;-67
2022/11/27 04:19:10;;;;;;;14.95;11.55;;;;;;;-1.26;100.00;96768.66;5076460;28;20155;-67
2022/11/27 04:21:35;;;;;;;13.27;11.82;;;;;;;-1.30;100.00;96767.94;5080255;28;20066;-67
2022/11/27 04:24:00;;;;;;;14.88;11.43;;;;;;;-1.31;100.00;96767.94;5083539;28;20020;-68
2022/11/27 04:26:26;;;;;;;12.35;11.13;;;;;;;-1.34;100.00;96765.47;5075066;28;20512;-57
2022/11/27 04:28:51;;;;;;;14.05;12.23;;;;;;;-1.35;100.00;96763.75;5082296;28;20027;-67
2022/11/27 04:31:17;;;;;;;13.18;11.88;;;;;;;-1.39;100.00;96773.31;5078381;28;20032;-68
2022/11/27 04:33:42;;;;;;;14.30;12.18;;;;;;;-1.44;100.00;96764.88;5078326;28;20040;-67
2022/11/27 04:36:08;;;;;;;13.73;12.38;;;;;;;-1.42;100.00;96763.09;5086130;28;20020;-67
2022/11/27 04:38:33;;;;;;;13.48;10.93;;;;;;;-1.45;100.00;96763.16;5081988;28;20016;-67
2022/11/27 04:40:58;;;;;;;13.45;9.98;;;;;;;-1.45;100.00;96758.84;5079421;28;20039;-68
2022/11/27 04:43:24;;;;;;;11.32;9.93;;;;;;;-1.41;100.00;96759.59;5088918;28;20040;-67
2022/11/27 04:45:49;;;;;;;11.93;9.75;;;;;;;-1.43;100.00;96752.81;5080586;28;20025;-59
2022/11/27 04:48:14;;;;;;;13.98;10.35;;;;;;;-1.50;100.00;96754.72;5089649;28;20034;-59
2022/11/27 04:50:40;;;;;;;17.00;12.48;;;;;;;-1.53;100.00;96753.03;5080685;28;20115;-57
2022/11/27 04:53:05;;;;;;;17.48;14.60;;;;;;;-1.48;100.00;96752.94;5088638;28;20027;-55
2022/11/27 04:55:31;;;;;;;15.60;13.45;;;;;;;-1.48;100.00;96756.34;5080691;28;20036;-56
2022/11/27 04:57:56;;;;;;;16.17;13.27;;;;;;;-1.50;100.00;96750.38;5086477;28;20025;-57
2022/11/27 05:00:21;;;;;;;21.20;17.95;;;;;;;-1.56;100.00;96753.13;5084455;28;20035;-56
2022/11/27 05:02:47;;;;;;;22.83;18.20;;;;;;;-1.57;100.00;96759.19;5087506;28;20031;-57
2022/11/27 05:05:12;;;;;;;22.92;17.05;;;;;;;-1.57;100.00;96764.34;5085742;28;20028;-69
2022/11/27 05:07:38;;;;;;;19.02;15.40;;;;;;;-1.54;100.00;96772.00;5085319;28;20108;-60
2022/11/27 05:10:04;;;;;;;15.60;13.82;;;;;;;-1.56;100.00;96778.97;5085140;28;20036;-57
2022/11/27 05:12:30;;;;;;;19.17;14.05;;;;;;;-1.51;100.00;96779.69;5082466;28;20402;-57
2022/11/27 05:14:55;;;;;;;15.75;14.02;;;;;;;-1.51;100.00;96779.69;5085712;28;20019;-56
2022/11/27 05:17:21;;;;;;;14.45;12.93;;;;;;;-1.53;100.00;96781.44;5083990;28;20099;-57
2022/11/27 05:19:46;;;;;;;15.30;13.52;;;;;;;-1.59;100.00;96776.47;5080814;28;20039;-57
2022/11/27 05:22:11;;;;;;;17.02;14.05;;;;;;;-1.59;100.00;96768.72;5083477;28;20492;-57
2022/11/27 05:24:37;;;;;;;15.80;13.43;;;;;;;-1.61;100.00;96778.25;5080341;28;20032;-61
2022/11/27 05:27:02;;;;;;;12.73;11.40;;;;;;;-1.60;100.00;96791.09;5082380;28;20032;-56
2022/11/27 05:29:28;;;;;;;18.15;13.50;;;;;;;-1.55;100.00;96796.16;5089662;28;20496;-57
2022/11/27 05:31:53;;;;;;;20.35;16.73;;;;;;;-1.48;100.00;96795.09;5088873;28;20497;-56
2022/11/27 05:34:19;;;;;;;19.52;16.75;;;;;;;-1.39;100.00;96799.16;5083348;28;20513;-55
2022/11/27 05:36:46;;;;;;;26.23;23.52;;;;;;;-1.42;100.00;96803.59;5086120;28;20098;-55
2022/11/27 05:39:12;;;;;;;19.65;17.27;;;;;;;-1.42;100.00;96793.25;5089369;28;20059;-56
2022/11/27 05:41:41;;;;;;;15.93;11.52;;;;;;;-1.42;100.00;96794.09;5083300;28;20048;-56
2022/11/27 05:44:10;;;;;;;18.80;12.48;;;;;;;-1.38;100.00;96794.84;5083229;28;20497;-60
2022/11/27 05:46:35;;;;;;;13.77;9.95;;;;;;;-1.35;100.00;96792.19;5079780;28;20020;-59
2022/11/27 05:49:01;;;;;;;17.60;15.25;;;;;;;-1.31;100.00;96791.22;5091475;28;20487;-59
2022/11/27 05:51:26;;;;;;;17.17;15.25;;;;;;;-1.31;100.00;96781.75;5079835;28;20773;-60
2022/11/27 05:53:51;;;;;;;15.38;13.50;;;;;;;-1.26;100.00;96784.16;5083017;28;20020;-59
2022/11/27 05:56:18;;;;;;;15.45;13.55;;;;;;;-1.25;100.00;96785.88;5075133;28;20020;-59
2022/11/27 05:58:45;;;;;;;13.77;12.18;;;;;;;-1.28;100.00;96775.63;5078325;28;20410;-60
2022/11/27 06:01:12;;;;;;;12.30;10.57;;;;;;;-1.27;100.00;96763.56;5088984;28;20042;-59
2022/11/27 06:03:40;;;;;;;12.25;10.32;;;;;;;-1.26;100.00;96758.34;5086062;28;20021;-59
2022/11/27 06:06:08;;;;;;;8.57;7.78;;;;;;;-1.28;100.00;96760.13;5087870;28;20391;-61
2022/11/27 06:08:35;;;;;;;8.52;6.70;;;;;;;-1.25;100.00;96751.44;5086042;28;20111;-61
2022/11/27 06:11:05;;;;;;;8.48;7.35;;;;;;;-1.23;100.00;96750.47;5084582;28;20196;-60
2022/11/27 06:13:31;;;;;;;7.18;6.50;;;;;;;-1.17;100.00;96747.75;5081242;28;20055;-60
2022/11/27 06:15:56;;;;;;;7.38;6.68;;;;;;;-1.13;100.00;96747.66;5080623;28;20051;-61
2022/11/27 06:18:21;;;;;;;8.82;7.97;;;;;;;-1.20;100.00;96742.69;5082072;28;20031;-61
2022/11/27 06:20:46;;;;;;;9.48;8.57;;;;;;;-1.22;100.00;96741.84;5075502;28;20031;-60
2022/11/27 06:23:12;;;;;;;10.07;7.82;;;;;;;-1.24;100.00;96735.03;5081574;28;20019;-60
2022/11/27 06:25:37;;;;;;;7.63;6.88;;;;;;;-1.27;100.00;96717.88;5079618;28;20140;-60
2022/11/27 06:28:03;;;;;;;7.13;6.53;;;;;;;-1.30;100.00;96723.13;5087185;28;20109;-61
2022/11/27 06:30:28;;;;;;;6.93;6.32;;;;;;;-1.41;100.00;96718.28;5082881;28;20155;-61
2022/11/27 06:32:53;;;;;;;6.22;5.72;;;;;;;-1.42;100.00;96716.56;5080512;28;20039;-61
2022/11/27 06:35:19;;;;;;;9.65;8.75;;;;;;;-1.41;100.00;96712.28;5084306;28;20024;-61
2022/11/27 06:37:44;;;;;;;13.30;12.20;;;;;;;-1.35;100.00;96714.69;5081615;28;20063;-61
2022/11/27 06:40:10;;;;;;;15.30;13.18;;;;;;;-1.30;100.00;96715.38;5083030;28;20081;-61
2022/11/27 06:42:35;;;;;;;13.77;12.30;;;;;;;-1.36;100.00;96707.81;5079004;28;20027;-61
2022/11/27 06:45:01;;;;;;;13.80;12.48;;;;;;;-1.45;100.00;96699.41;5091379;28;20111;-61
2022/11/27 06:47:26;;;;;;;14.80;13.38;;;;;;;-1.48;100.00;96698.69;5078931;28;20481;-61
2022/11/27 06:49:51;;;;;;;13.48;12.07;;;;;;;-1.50;100.00;96709.03;5081622;28;20498;-60
2022/11/27 06:52:17;;;;;;;11.55;10.55;;;;;;;-1.48;100.00;96699.50;5075873;28;20574;-60
2022/11/27 06:54:42;;;;;;;14.52;13.23;;;;;;;-1.45;100.00;96702.00;5075276;28;20020;-61
2022/11/27 06:57:07;;;;;;;15.15;13.70;;;;;;;-1.37;100.00;96719.03;5081314;28;20032;-61
2022/11/27 06:59:32;;;;;;;14.30;13.00;;;;;;;-1.37;100.00;96716.47;5087578;28;20024;-61
2022/11/27 07:01:58;;;;;;;18.60;16.95;;;;;;;-1.35;100.00;96714.69;5078918;28;20278;-56
2022/11/27 07:04:23;;;;;;;20.38;18.40;;;;;;;-1.40;100.00;96717.38;5081941;28;20127;-68
2022/11/27 07:06:49;;;;;;;16.90;15.25;;;;;;;-1.46;100.00;96718.41;5082280;28;20042;-67
2022/11/27 07:09:15;;;;;;;12.15;11.05;;;;;;;-1.49;100.00;96715.91;5079813;28;20028;-69
2022/11/27 07:11:40;;;;;;;10.35;9.50;;;;;;;-1.49;100.00;96715.91;5075196;28;20024;-69
2022/11/27 07:14:06;;;;;;;9.75;8.75;;;;;;;-1.46;100.00;96717.56;5081627;28;20024;-68
2022/11/27 07:16:34;;;;;;;9.63;8.77;;;;;;;-1.41;100.00;96717.44;5078968;28;20016;-68
2022/11/27 07:19:05;;;;;;;13.25;11.65;;;;;;;-1.34;100.00;96719.78;5080890;28;20089;-70
2022/11/27 07:21:32;;;;;;;12.00;10.80;;;;;;;-1.22;100.00;96716.00;5080185;28;20039;-58
2022/11/27 07:23:57;;;;;;;13.82;12.43;;;;;;;-1.14;100.00;96713.19;5084169;28;20016;-62
2022/11/27 07:26:26;;;;;;;14.23;12.40;;;;;;;-1.05;100.00;96722.41;5083553;28;20023;-62
2022/11/27 07:28:52;;;;;;;18.20;15.35;;;;;;;-0.94;100.00;96722.09;5080011;28;20020;-61
2022/11/27 07:31:23;;;;;;;15.50;14.00;;;;;;;-0.85;100.00;96728.75;5080653;28;20019;-62
2022/11/27 07:33:51;;;;;;;15.60;14.00;;;;;;;-0.78;100.00;96736.28;5080915;28;20514;-62
2022/11/27 07:36:19;;;;;;;18.30;15.45;;;;;;;-0.72;100.00;96730.06;5080390;28;20020;-62
2022/11/27 07:38:45;;;;;;;19.98;17.92;;;;;;;-0.61;100.00;96733.16;5080089;28;20024;-63
2022/11/27 07:41:12;;;;;;;22.02;19.85;;;;;;;-0.53;100.00;96729.50;5079426;28;20081;-62
2022/11/27 07:43:39;;;;;;;20.15;18.05;;;;;;;-0.46;100.00;96724.06;5080037;28;20516;-68
2022/11/27 07:46:07;;;;;;;19.02;17.05;;;;;;;-0.35;100.00;96715.97;5082109;28;20055;-68
2022/11/27 07:48:33;;;;;;;22.95;20.52;;;;;;;-0.29;100.00;96714.91;5081977;28;20095;-67
2022/11/27 07:50:58;;;;;;;26.20;23.75;;;;;;;-0.20;100.00;96724.13;5081527;28;20110;-67
2022/11/27 07:53:24;;;;;;;24.00;21.73;;;;;;;-0.11;100.00;96713.50;5078665;28;20047;-67
2022/11/27 07:55:49;;;;;;;19.42;17.63;;;;;;;0.01;100.00;96708.78;5082656;28;20074;-67
2022/11/27 07:58:15;;;;;;;19.45;17.67;;;;;;;0.11;100.00;96702.38;5080180;28;20031;-59
2022/11/27 08:00:40;;;;;;;20.05;18.02;;;;;;;0.21;100.00;96693.41;5080124;28;20482;-57
2022/11/27 08:03:06;;;;;;;18.02;15.07;;;;;;;0.26;100.00;96681.13;5085778;28;20512;-56
2022/11/27 08:05:35;;;;;;;15.68;14.02;;;;;;;0.34;100.00;96686.03;5080941;28;20108;-56
2022/11/27 08:08:03;;;;;;;17.08;15.38;;;;;;;0.44;100.00;96689.16;5080986;28;20032;-56
2022/11/27 08:10:35;;;;;;;22.10;20.10;;;;;;;0.52;100.00;96694.91;5085960;28;20054;-59
2022/11/27 08:13:00;;;;;;;26.73;24.10;;;;;;;0.78;100.00;96705.22;5070602;28;20040;-57
2022/11/27 08:15:25;;;;;;;18.75;17.05;;;;;;;0.79;100.00;96696.53;5085095;28;20032;-58
2022/11/27 08:17:51;;;;;;;21.65;19.65;;;;;;;0.93;100.00;96690.84;5084402;28;20103;-68
2022/11/27 08:20:18;;;;;;;32.50;29.52;;;;;;;1.09;100.00;96699.72;5086532;28;20035;-61
2022/11/27 08:22:44;;;;;;;29.83;26.92;;;;;;;1.21;100.00;96687.19;5083929;28;20100;-61
2022/11/27 08:25:09;;;;;;;26.58;24.10;;;;;;;1.22;100.00;96683.72;5085033;28;20115;-61
2022/11/27 08:27:35;;;;;;;31.02;28.15;;;;;;;1.31;100.00;96677.28;5079663;28;20086;-61
2022/11/27 08:30:00;;;;;;;35.00;31.85;;;;;;;1.27;100.00;96669.63;5090149;28;20032;-62
2022/11/27 08:32:26;;;;;;;38.03;34.58;;;;;;;1.25;100.00;96668.84;5086122;28;20075;-61
2022/11/27 08:34:51;;;;;;;34.20;31.17;;;;;;;1.42;100.00;96668.16;5087650;28;20032;-61
2022/11/27 08:37:16;;;;;;;31.08;27.98;;;;;;;1.50;100.00;96664.44;5083192;28;20493;-61
2022/11/27 08:39:42;;;;;;;22.88;20.92;;;;;;;1.56;100.00;96659.84;5092241;28;20051;-67
2022/11/27 08:42:07;;;;;;;24.45;22.30;;;;;;;1.66;100.00;96649.06;5091679;28;20024;-61
2022/11/27 08:44:33;;;;;;;20.73;18.95;;;;;;;1.72;100.00;96659.19;5089625;28;20012;-60
2022/11/27 08:46:58;;;;;;;21.15;19.35;;;;;;;1.78;100.00;96656.38;5088199;28;20286;-62
2022/11/27 08:49:24;;;;;;;20.55;17.80;;;;;;;1.85;100.00;96649.13;5088933;28;20452;-61
2022/11/27 08:51:49;;;;;;;16.83;15.18;;;;;;;1.92;100.00;96647.13;5088388;28;20056;-63
2022/11/27 08:54:15;;;;;;;15.05;13.60;;;;;;;1.98;100.00;96650.31;5089136;28;20123;-63
2022/11/27 08:56:40;;;;;;;13.52;12.23;;;;;;;1.99;100.00;96652.00;5084069;28;20032;-64
2022/11/27 08:59:05;;;;;;;16.58;14.98;;;;;;;2.00;100.00;96639.88;5086650;28;20063;-62
2022/11/27 09:01:31;;;;;;;15.05;13.55;;;;;;;2.11;100.00;96645.44;5086493;28;20032;-69
2022/11/27 09:03:57;;;;;;;14.63;13.23;;;;;;;2.05;100.00;96640.50;5090794;28;20027;-69
2022/11/27 09:06:25;;;;;;;14.52;12.00;;;;;;;2.16;100.00;96653.03;5087025;28;20532;-70
2022/11/27 09:08:50;;;;;;;12.32;11.10;;;;;;;2.33;100.00;96647.09;5089333;28;20344;-67
2022/11/27 09:11:18;;;;;;;12.27;11.07;;;;;;;2.65;100.00;96644.84;5081096;28;20027;-67
2022/11/27 09:13:44;;;;;;;20.75;18.75;;;;;;;2.98;100.00;96644.19;5084585;28;20481;-67
2022/11/27 09:16:12;;;;;;;23.45;21.15;;;;;;;3.32;100.00;96638.31;5086384;28;20524;-68
2022/11/27 09:18:39;;;;;;;16.98;15.43;;;;;;;3.43;100.00;96638.63;5079388;28;20024;-62
2022/11/27 09:21:07;;;;;;;16.52;14.93;;;;;;;3.54;100.00;96635.50;5081593;28;20059;-65
2022/11/27 09:23:32;;;;;;;13.20;12.10;;;;;;;3.57;99.25;96644.00;5087845;28;20582;-65
2022/11/27 09:26:02;;;;;;;16.30;14.80;;;;;;;3.64;99.54;96648.91;5098994;28;20032;-65
2022/11/27 09:28:28;;;;;;;12.50;11.43;;;;;;;3.80;100.00;96643.78;5094043;28;20373;-66
2022/11/27 09:30:55;;;;;;;18.48;16.77;;;;;;;3.84;100.00;96647.91;5085009;28;20032;-65
2022/11/27 09:33:22;;;;;;;18.60;16.55;;;;;;;3.79;100.00;96652.50;5078697;28;20068;-65
2022/11/27 09:35:47;;;;;;;12.65;11.48;;;;;;;3.82;100.00;96645.38;5087707;28;20024;-59
2022/11/27 09:38:13;;;;;;;12.50;10.10;;;;;;;3.82;100.00;96637.56;5088015;28;20076;-62
2022/11/27 09:40:47;;;;;;;12.07;10.98;;;;;;;3.94;100.00;96628.28;5090850;28;20135;-62
2022/11/27 09:43:12;;;;;;;9.45;8.50;;;;;;;4.03;100.00;96627.00;5083146;28;20016;-62
2022/11/27 09:45:44;;;;;;;5.72;5.22;;;;;;;4.22;99.26;96613.84;5088583;28;20602;-62
2022/11/27 09:48:17;;;;;;;6.28;5.63;;;;;;;4.35;97.93;96616.66;5086030;28;20027;-62
2022/11/27 09:50:49;;;;;;;5.95;5.15;;;;;;;4.57;97.00;96612.91;5088196;28;20025;-62
2022/11/27 09:53:26;;;;;;;6.55;5.10;;;;;;;4.91;93.83;96616.31;5091155;28;20477;-62
2022/11/27 09:55:54;;;;;;;5.07;4.65;;;;;;;5.22;92.25;96617.19;5081890;28;20020;-59
2022/11/27 09:58:39;;;;;;;5.22;4.82;;;;;;;5.67;88.97;96613.81;5082845;28;20036;-59
2022/11/27 10:01:13;;;;;;;4.27;3.97;;;;;;;5.96;86.44;96611.28;5088400;28;20554;-60
2022/11/27 10:03:43;;;;;;;3.45;3.20;;;;;;;6.12;82.97;96609.47;5090554;28;20081;-60
2022/11/27 10:06:11;;;;;;;3.58;3.33;;;;;;;6.09;82.17;96600.97;5086682;28;20028;-59
2022/11/27 10:09:12;;;;;;;3.50;3.15;;;;;;;6.08;79.92;96599.28;5071744;28;20056;-60
2022/11/27 10:12:15;;;;;;;3.20;3.00;;;;;;;6.02;80.80;96590.88;5061924;28;20106;-59
2022/11/27 10:14:43;;;;;;;2.92;2.72;;;;;;;5.91;77.63;96587.19;5085767;28;20036;-63
2022/11/27 10:17:19;;;;;;;3.35;2.70;;;;;;;5.78;76.37;96587.06;5087132;28;20062;-62
2022/11/27 10:19:54;;;;;;;2.80;2.60;;;;;;;5.70;80.59;96584.91;5085587;28;20077;-62
2022/11/27 10:22:27;;;;;;;;;;;;;;;5.71;77.93;96587.44;5081844;28;20056;-62
2022/11/27 10:25:16;;;;;;;2.97;2.78;;;;;;;5.61;77.07;96590.69;5081319;28;19927;-62
2022/11/27 10:28:04;;;;;;;4.80;4.40;;;;;;;5.50;74.56;96586.06;5075622;28;20035;-63
2022/11/27 10:30:35;;;;;;;3.10;2.90;;;;;;;5.49;75.97;96589.63;5084615;28;20146;-62
2022/11/27 10:33:02;;;;;;;3.40;3.15;;;;;;;5.64;76.80;96580.91;5081378;28;20510;-60
2022/11/27 10:35:31;;;;;;;3.03;2.80;;;;;;;5.68;74.59;96585.00;5092746;28;20201;-60
2022/11/27 10:37:56;;;;;;;3.03;2.83;;;;;;;5.72;76.78;96577.81;5085142;28;20035;-69
2022/11/27 10:40:31;;;;;;;3.33;3.10;;;;;;;5.82;78.21;96573.75;5086992;28;20027;-69
2022/11/27 10:43:10;;;;;;;3.60;3.40;;;;;;;5.91;74.82;96561.03;5083749;28;20019;-69
2022/11/27 10:45:43;;;;;;;3.40;3.20;;;;;;;5.98;78.35;96565.81;5083499;28;20033;-69
2022/11/27 10:48:09;;;;;;;3.28;3.05;;;;;;;6.07;77.72;96550.53;5080374;28;20439;-69
2022/11/27 10:50:35;;;;;;;4.10;3.80;;;;;;;6.10;77.36;96545.97;5081157;28;20402;-69
2022/11/27 10:53:20;;;;;;;4.43;4.00;;;;;;;6.10;73.39;96542.53;5086018;28;20036;-59
2022/11/27 10:56:11;;;;;;;7.53;4.30;;;;;;;6.10;73.92;96532.06;5082701;28;20140;-63
2022/11/27 10:59:04;;;;;;;4.13;3.88;;;;;;;6.26;75.63;96527.56;5082918;28;20401;-62
2022/11/27 11:01:45;;;;;;;4.13;3.72;;;;;;;6.20;72.91;96522.72;5083942;28;20031;-62
2022/11/27 11:04:13;;;;;;;3.47;3.17;;;;;;;6.24;74.55;96523.38;5083535;28;20027;-62
2022/11/27 11:06:45;;;;;;;4.30;3.30;;;;;;;6.23;71.38;96506.84;5068516;28;20111;-61
2022/11/27 11:09:28;;;;;;;5.15;3.80;;;;;;;6.16;71.32;96508.97;5089521;28;20028;-62
2022/11/27 11:12:15;;;;;;;4.43;4.03;;;;;;;6.14;72.31;96503.00;5079554;28;20016;-62
2022/11/27 11:14:49;;;;;;;3.38;3.00;;;;;;;6.18;67.59;96495.81;5093133;28;20012;-65
2022/11/27 11:17:16;;;;;;;5.15;2.72;;;;;;;6.30;71.04;96487.22;5083900;28;20020;-63
2022/11/27 11:19:42;;;;;;;3.00;2.80;;;;;;;6.34;69.26;96476.56;5084086;28;20518;-67
2022/11/27 11:22:14;;;;;;;3.00;2.80;;;;;;;6.39;68.81;96471.88;5083715;28;20052;-65
2022/11/27 11:24:52;;;;;;;3.85;3.55;;;;;;;6.47;67.54;96461.75;5076203;28;20024;-68